Time;durP1;ratioP1;P1;durP2;ratioP2;P2;SDS_P1;SDS_P2;PMS_P1;PMS_P2;Temp;Humidity;BMP_temperature;BMP_pressure;BME280_temperature;BME280_humidity;BME280_pressure;Samples;Min_cycle;Max_cycle;Signal;HPM_P1;HPM_P2
2021/11/22 00:02:21;;;;;;;6.07;0.60;;;4.60;99.90;;;;;;5026397;28;20022;-89
2021/11/22 00:04:46;;;;;;;4.28;0.50;;;4.60;99.90;;;;;;5036788;28;20045;-89
2021/11/22 00:07:12;;;;;;;7.63;0.60;;;4.60;99.90;;;;;;5026755;28;20152;-89
2021/11/22 00:09:38;;;;;;;9.18;1.65;;;4.60;99.90;;;;;;5027044;28;20121;-89
2021/11/22 00:12:04;;;;;;;5.65;0.50;;;4.60;99.90;;;;;;5024577;28;20056;-89
2021/11/22 00:14:30;;;;;;;6.22;0.50;;;4.60;99.90;;;;;;5025788;28;20033;-89
2021/11/22 00:16:57;;;;;;;11.35;0.65;;;4.60;99.90;;;;;;5027603;28;20048;-89
2021/11/22 00:19:23;;;;;;;10.20;1.33;;;4.50;99.90;;;;;;5026666;28;20018;-90
2021/11/22 00:21:49;;;;;;;4.10;0.50;;;4.60;99.90;;;;;;5028394;28;20041;-88
2021/11/22 00:24:14;;;;;;;4.35;0.50;;;4.50;99.90;;;;;;5025539;28;20033;-89
2021/11/22 00:26:40;;;;;;;7.10;0.50;;;4.60;99.90;;;;;;5025196;28;20037;-89
2021/11/22 00:29:06;;;;;;;8.25;0.60;;;4.60;99.90;;;;;;5028576;28;20136;-89
2021/11/22 00:31:31;;;;;;;5.82;0.80;;;4.50;99.90;;;;;;5025525;28;20044;-89
2021/11/22 00:33:58;;;;;;;10.10;1.10;;;4.50;99.90;;;;;;5024319;28;20037;-89
2021/11/22 00:36:24;;;;;;;4.53;0.70;;;4.50;99.90;;;;;;5025316;28;20049;-89
2021/11/22 00:38:50;;;;;;;4.97;0.47;;;4.50;99.90;;;;;;5027628;28;20083;-88
2021/11/22 00:41:15;;;;;;;3.30;0.68;;;4.50;99.90;;;;;;5027374;28;20045;-89
2021/11/22 00:43:41;;;;;;;5.10;1.00;;;4.40;99.90;;;;;;5031260;28;20554;-89
2021/11/22 00:46:07;;;;;;;3.50;0.50;;;4.40;99.90;;;;;;5029757;28;20079;-88
2021/11/22 00:48:34;;;;;;;4.63;0.50;;;4.40;99.90;;;;;;5030711;28;20049;-89
2021/11/22 00:51:00;;;;;;;5.50;0.60;;;4.40;99.90;;;;;;5047766;28;20072;-89
2021/11/22 00:53:27;;;;;;;5.22;0.70;;;4.40;99.90;;;;;;5029348;28;20038;-89
2021/11/22 00:55:52;;;;;;;8.60;0.55;;;4.40;99.90;;;;;;5029356;28;20024;-88
2021/11/22 00:58:18;;;;;;;3.40;0.50;;;4.40;99.90;;;;;;5030120;28;20489;-88
2021/11/22 01:00:43;;;;;;;8.20;0.60;;;4.40;99.90;;;;;;5030289;28;20084;-89
2021/11/22 01:03:09;;;;;;;7.10;0.50;;;4.30;99.90;;;;;;5030802;28;20116;-90
2021/11/22 01:05:35;;;;;;;7.60;0.82;;;4.30;99.90;;;;;;5031308;28;20119;-90
2021/11/22 01:08:03;;;;;;;6.32;0.50;;;4.30;99.90;;;;;;5031544;28;20030;-90
2021/11/22 01:10:28;;;;;;;9.05;0.50;;;4.30;99.90;;;;;;5030969;28;20045;-90
2021/11/22 01:12:54;;;;;;;6.15;0.68;;;4.30;99.90;;;;;;5031086;28;20033;-89
2021/11/22 01:15:21;;;;;;;7.50;0.60;;;4.20;99.90;;;;;;5027760;28;20071;-87
2021/11/22 01:17:49;;;;;;;3.50;0.52;;;4.20;99.90;;;;;;5028511;28;20500;-90
2021/11/22 01:20:17;;;;;;;2.50;0.50;;;4.30;99.90;;;;;;5043942;28;20033;-90
2021/11/22 01:22:43;;;;;;;4.60;0.60;;;4.20;99.90;;;;;;5028195;28;20075;-89
2021/11/22 01:25:11;;;;;;;4.43;0.65;;;4.20;99.90;;;;;;5028662;28;20036;-89
2021/11/22 01:27:36;;;;;;;2.42;0.70;;;4.20;99.90;;;;;;5029680;28;20144;-88
2021/11/22 01:30:08;;;;;;;5.20;0.40;;;4.20;99.90;;;;;;5028224;28;20088;-89
2021/11/22 01:32:34;;;;;;;8.30;0.65;;;4.20;99.90;;;;;;5039734;28;20029;-89
2021/11/22 01:35:00;;;;;;;3.55;0.50;;;4.20;99.90;;;;;;5027652;28;20390;-89
2021/11/22 01:37:25;;;;;;;4.57;0.50;;;4.20;99.90;;;;;;5046431;28;20022;-88
2021/11/22 01:39:51;;;;;;;4.38;0.50;;;4.10;99.90;;;;;;5028320;28;20051;-89
2021/11/22 01:42:16;;;;;;;3.25;0.60;;;4.10;99.90;;;;;;5031172;28;20017;-89
2021/11/22 01:44:42;;;;;;;6.40;0.60;;;4.10;99.90;;;;;;5028421;28;20029;-88
2021/11/22 01:47:07;;;;;;;2.95;0.85;;;4.10;99.90;;;;;;5026887;28;20124;-90
2021/11/22 01:49:33;;;;;;;5.38;0.60;;;4.10;99.90;;;;;;5029464;28;20076;-90
2021/11/22 01:51:59;;;;;;;5.93;0.50;;;4.00;99.90;;;;;;5040323;28;20034;-90
2021/11/22 01:54:24;;;;;;;6.55;0.60;;;4.00;99.90;;;;;;5028480;28;20033;-90
2021/11/22 01:56:50;;;;;;;5.78;0.50;;;4.00;99.90;;;;;;5030773;28;20083;-90
2021/11/22 01:59:17;;;;;;;2.70;0.57;;;3.90;99.90;;;;;;5027366;28;20018;-90
2021/11/22 02:01:45;;;;;;;4.90;0.50;;;4.00;99.90;;;;;;5027063;28;20033;-91
2021/11/22 02:04:11;;;;;;;10.13;0.68;;;4.00;99.90;;;;;;5025957;28;20037;-89
2021/11/22 02:06:37;;;;;;;3.88;0.60;;;4.00;99.90;;;;;;5028488;28;20041;-90
2021/11/22 02:09:04;;;;;;;3.28;0.50;;;3.90;99.90;;;;;;5027711;28;20032;-90
2021/11/22 02:11:30;;;;;;;4.82;0.40;;;3.90;99.90;;;;;;5044399;28;20069;-90
2021/11/22 02:13:55;;;;;;;7.22;0.50;;;3.80;99.90;;;;;;5025105;28;20072;-89
2021/11/22 02:16:21;;;;;;;4.32;0.50;;;3.80;99.90;;;;;;5027453;28;20071;-89
2021/11/22 02:18:46;;;;;;;3.30;0.60;;;3.70;99.90;;;;;;5042960;28;20033;-89
2021/11/22 02:21:14;;;;;;;6.68;0.52;;;3.70;99.90;;;;;;5029161;28;20061;-89
2021/11/22 02:23:40;;;;;;;8.68;0.50;;;3.60;99.90;;;;;;5027622;28;20076;-91
2021/11/22 02:26:05;;;;;;;8.02;0.82;;;3.70;99.90;;;;;;5025700;28;20029;-88
2021/11/22 02:28:31;;;;;;;9.48;0.85;;;3.60;99.90;;;;;;5030186;28;20029;-88
2021/11/22 02:30:56;;;;;;;8.52;0.90;;;3.60;99.90;;;;;;5029565;28;20044;-90
2021/11/22 02:33:24;;;;;;;4.13;0.65;;;3.50;99.90;;;;;;5029029;28;20029;-90
2021/11/22 02:35:55;;;;;;;4.38;0.80;;;3.50;99.90;;;;;;5028084;28;20163;-90
2021/11/22 02:38:24;;;;;;;4.75;0.60;;;3.50;99.90;;;;;;5023881;28;20540;-90
2021/11/22 02:40:49;;;;;;;5.00;0.75;;;3.40;99.90;;;;;;5029345;28;20099;-89
2021/11/22 02:43:16;;;;;;;6.25;0.80;;;3.40;99.90;;;;;;5028111;28;20433;-89
2021/11/22 02:45:42;;;;;;;5.50;0.88;;;3.40;99.90;;;;;;5028363;28;20072;-90
2021/11/22 02:48:07;;;;;;;5.43;0.90;;;3.40;99.90;;;;;;5024900;28;20045;-89
2021/11/22 02:50:34;;;;;;;3.78;0.70;;;3.40;99.90;;;;;;5024209;28;20037;-90
2021/11/22 02:52:59;;;;;;;5.88;0.93;;;3.30;99.90;;;;;;5027321;28;20026;-89
2021/11/22 02:55:25;;;;;;;6.35;1.08;;;3.30;99.90;;;;;;5028376;28;20033;-89
2021/11/22 02:57:51;;;;;;;3.72;0.70;;;3.40;99.90;;;;;;5027491;28;20030;-90
2021/11/22 03:00:23;;;;;;;6.32;0.70;;;3.30;99.90;;;;;;5026838;28;20506;-90
2021/11/22 03:02:49;;;;;;;6.00;0.70;;;3.40;99.90;;;;;;5027103;28;20021;-89
2021/11/22 03:05:15;;;;;;;8.43;1.10;;;3.30;99.90;;;;;;5027662;28;20499;-90
2021/11/22 03:07:41;;;;;;;5.35;0.60;;;3.30;99.90;;;;;;5029421;28;20040;-90
2021/11/22 03:10:09;;;;;;;5.43;0.93;;;3.30;99.90;;;;;;5028270;28;20059;-89
2021/11/22 03:12:35;;;;;;;6.82;0.60;;;3.30;99.90;;;;;;5028934;28;20033;-90
2021/11/22 03:15:08;;;;;;;4.30;1.10;;;3.30;99.90;;;;;;5025854;28;20076;-89
2021/11/22 03:17:33;;;;;;;3.63;0.82;;;3.30;99.90;;;;;;5023510;28;20033;-90
2021/11/22 03:19:59;;;;;;;5.93;0.73;;;3.40;99.90;;;;;;5026926;28;20034;-89
2021/11/22 03:22:24;;;;;;;4.03;0.80;;;3.30;99.90;;;;;;5028693;28;20496;-91
2021/11/22 03:24:50;;;;;;;8.73;1.33;;;3.30;99.90;;;;;;5027574;28;20022;-90
2021/11/22 03:27:15;;;;;;;8.63;1.02;;;3.30;99.90;;;;;;5025069;28;20041;-89
2021/11/22 03:29:41;;;;;;;10.93;1.00;;;3.30;99.90;;;;;;5026958;28;20029;-90
2021/11/22 03:32:08;;;;;;;3.85;0.80;;;3.30;99.90;;;;;;5023523;28;20416;-90
2021/11/22 03:34:33;;;;;;;5.47;1.00;;;3.20;99.90;;;;;;5026570;28;20036;-91
2021/11/22 03:37:02;;;;;;;3.45;0.82;;;3.20;99.90;;;;;;5027288;28;20068;-90
2021/11/22 03:39:29;;;;;;;3.30;0.88;;;3.10;99.90;;;;;;5028054;28;20053;-90
2021/11/22 03:41:57;;;;;;;3.00;0.70;;;3.10;99.90;;;;;;5024941;28;20022;-90
2021/11/22 03:44:24;;;;;;;5.88;0.88;;;3.10;99.90;;;;;;5025200;28;20531;-89
2021/11/22 03:46:52;;;;;;;4.80;0.70;;;3.10;99.90;;;;;;5028380;28;20026;-90
2021/11/22 03:49:18;;;;;;;8.18;0.90;;;3.00;99.90;;;;;;5024200;28;20389;-90
2021/11/22 03:51:45;;;;;;;5.88;1.13;;;3.10;99.90;;;;;;5027968;28;20032;-89
2021/11/22 03:54:11;;;;;;;8.32;0.82;;;3.00;99.90;;;;;;5027430;28;20435;-90
2021/11/22 03:56:38;;;;;;;7.35;0.88;;;3.00;99.90;;;;;;5027061;28;20036;-90
2021/11/22 03:59:04;;;;;;;3.95;0.70;;;3.00;99.90;;;;;;5024775;28;20025;-90
2021/11/22 04:01:30;;;;;;;5.20;0.63;;;3.00;99.90;;;;;;5026627;28;20060;-89
2021/11/22 04:03:55;;;;;;;3.25;0.70;;;3.00;99.90;;;;;;5025421;28;20053;-90
2021/11/22 04:06:21;;;;;;;8.68;0.90;;;3.00;99.90;;;;;;5026574;28;20029;-90
2021/11/22 04:08:47;;;;;;;4.82;0.73;;;3.00;99.90;;;;;;5026936;28;20026;-89
2021/11/22 04:11:13;;;;;;;3.58;0.73;;;3.00;99.90;;;;;;5023557;28;20068;-90
2021/11/22 04:13:38;;;;;;;8.30;0.90;;;3.00;99.90;;;;;;5027632;28;20025;-91
2021/11/22 04:16:05;;;;;;;6.72;0.77;;;2.90;99.90;;;;;;5031366;28;20471;-89
2021/11/22 04:18:31;;;;;;;9.50;0.98;;;2.90;99.90;;;;;;5033806;28;20030;-90
2021/11/22 04:20:57;;;;;;;6.80;0.73;;;3.00;99.90;;;;;;5027202;28;20037;-90
2021/11/22 04:23:23;;;;;;;5.22;0.70;;;2.90;99.90;;;;;;5034687;28;20025;-90
2021/11/22 04:25:49;;;;;;;4.80;0.98;;;2.90;99.90;;;;;;5027707;28;20029;-90
2021/11/22 04:28:15;;;;;;;4.72;0.85;;;2.90;99.90;;;;;;5030796;28;20503;-90
2021/11/22 04:30:41;;;;;;;4.78;0.98;;;2.90;99.90;;;;;;5032264;28;20041;-90
2021/11/22 04:33:07;;;;;;;4.45;0.82;;;2.90;99.90;;;;;;5032652;28;20029;-89
2021/11/22 04:35:32;;;;;;;6.60;0.70;;;2.90;99.90;;;;;;5035362;28;20064;-90
2021/11/22 04:37:58;;;;;;;3.88;0.95;;;2.80;99.90;;;;;;5035003;28;20025;-89
2021/11/22 04:40:24;;;;;;;5.40;1.02;;;2.80;99.90;;;;;;5028823;28;20374;-89
2021/11/22 04:42:50;;;;;;;4.75;0.80;;;2.80;99.90;;;;;;5035099;28;20473;-91
2021/11/22 04:45:17;;;;;;;2.60;0.60;;;2.70;99.90;;;;;;5024375;28;20041;-90
2021/11/22 04:47:43;;;;;;;8.02;0.98;;;2.70;99.90;;;;;;5031310;28;20026;-90
2021/11/22 04:50:09;;;;;;;6.00;0.98;;;2.70;99.90;;;;;;5035602;28;20094;-90
2021/11/22 04:52:35;;;;;;;11.77;1.98;;;2.70;99.90;;;;;;5034798;28;20036;-90
2021/11/22 04:55:01;;;;;;;4.95;1.00;;;2.60;99.90;;;;;;5034112;28;20359;-90
2021/11/22 04:57:27;;;;;;;6.50;0.77;;;2.60;99.90;;;;;;5033959;28;20202;-90
2021/11/22 04:59:53;;;;;;;3.58;0.80;;;2.60;99.90;;;;;;5038524;28;20401;-90
2021/11/22 05:02:19;;;;;;;11.18;1.20;;;2.60;99.90;;;;;;5034373;28;20032;-90
2021/11/22 05:04:44;;;;;;;7.72;1.10;;;2.60;99.90;;;;;;5033970;28;20029;-90
2021/11/22 05:07:10;;;;;;;5.53;1.05;;;2.60;99.90;;;;;;5032099;28;20049;-90
2021/11/22 05:09:35;;;;;;;6.10;1.17;;;2.60;99.90;;;;;;5032082;28;20029;-90
2021/11/22 05:12:01;;;;;;;5.82;1.33;;;2.60;99.90;;;;;;5016791;28;20104;-90
2021/11/22 05:14:27;;;;;;;6.88;0.93;;;2.50;99.90;;;;;;5031215;28;20432;-90
2021/11/22 05:16:53;;;;;;;4.93;0.80;;;2.50;99.90;;;;;;5031500;28;20068;-90
2021/11/22 05:19:19;;;;;;;7.35;1.05;;;2.50;99.90;;;;;;5030475;28;20021;-91
2021/11/22 05:21:44;;;;;;;4.18;0.80;;;2.50;99.90;;;;;;5030804;28;20393;-90
2021/11/22 05:24:10;;;;;;;9.13;1.45;;;2.40;99.90;;;;;;5034026;28;20044;-89
2021/11/22 05:26:36;;;;;;;9.25;0.77;;;2.40;99.90;;;;;;5032573;28;20112;-89
2021/11/22 05:29:03;;;;;;;6.10;1.08;;;2.40;99.90;;;;;;5031781;28;20033;-89
2021/11/22 05:31:29;;;;;;;8.63;0.90;;;2.40;99.90;;;;;;5030224;28;20065;-88
2021/11/22 05:33:54;;;;;;;4.85;0.90;;;2.40;99.90;;;;;;5035367;28;20025;-89
2021/11/22 05:36:20;;;;;;;5.60;0.90;;;2.40;99.90;;;;;;5035015;28;20025;-89
2021/11/22 05:38:47;;;;;;;13.10;1.35;;;2.40;99.90;;;;;;5033898;28;20033;-89
2021/11/22 05:41:13;;;;;;;5.10;0.65;;;2.30;99.90;;;;;;5023087;28;20502;-88
2021/11/22 05:43:39;;;;;;;3.13;0.70;;;2.30;99.90;;;;;;5026732;28;20043;-89
2021/11/22 05:46:06;;;;;;;6.28;0.85;;;2.30;99.90;;;;;;5028026;28;20037;-88
2021/11/22 05:48:32;;;;;;;12.57;1.15;;;2.30;99.90;;;;;;5032026;28;20026;-88
2021/11/22 05:50:58;;;;;;;4.13;1.30;;;2.30;99.90;;;;;;5032543;28;20037;-89
2021/11/22 05:53:24;;;;;;;3.97;1.05;;;2.20;99.90;;;;;;5047166;28;20021;-88
2021/11/22 05:55:52;;;;;;;8.25;1.27;;;2.20;99.90;;;;;;5025639;28;20037;-89
2021/11/22 05:58:19;;;;;;;3.28;0.90;;;2.20;99.90;;;;;;5032333;28;20209;-89
2021/11/22 06:00:46;;;;;;;7.38;1.05;;;2.20;99.90;;;;;;5040367;28;20025;-90
2021/11/22 06:03:12;;;;;;;11.15;1.48;;;2.20;99.90;;;;;;5043830;28;20028;-89
2021/11/22 06:05:38;;;;;;;4.97;0.90;;;2.20;99.90;;;;;;5026291;28;20033;-90
2021/11/22 06:08:04;;;;;;;2.75;0.80;;;2.10;99.90;;;;;;5033291;28;20497;-90
2021/11/22 06:10:30;;;;;;;4.82;1.13;;;2.10;99.90;;;;;;5016081;28;20037;-89
2021/11/22 06:12:56;;;;;;;7.90;0.90;;;2.00;99.90;;;;;;5025652;28;20033;-89
2021/11/22 06:15:22;;;;;;;10.02;2.55;;;2.00;99.90;;;;;;5048286;28;20040;-89
2021/11/22 06:17:48;;;;;;;7.88;1.05;;;2.00;99.90;;;;;;5023497;28;20037;-89
2021/11/22 06:20:14;;;;;;;7.53;1.10;;;2.00;99.90;;;;;;5034779;28;20044;-90
2021/11/22 06:22:46;;;;;;;7.57;1.25;;;2.00;99.90;;;;;;5051822;28;20025;-90
2021/11/22 06:25:12;;;;;;;9.60;1.33;;;1.90;99.90;;;;;;5033324;28;20041;-89
2021/11/22 06:27:38;;;;;;;7.20;1.38;;;1.90;99.90;;;;;;5029156;28;20120;-90
2021/11/22 06:30:07;;;;;;;4.22;0.88;;;1.90;99.90;;;;;;5026436;28;20520;-90
2021/11/22 06:32:32;;;;;;;6.40;0.95;;;1.80;99.90;;;;;;5026655;28;20071;-90
2021/11/22 06:34:58;;;;;;;8.45;1.40;;;1.90;99.90;;;;;;5021426;28;20042;-90
2021/11/22 06:37:25;;;;;;;6.75;1.38;;;1.80;99.90;;;;;;5046649;28;20022;-89
2021/11/22 06:39:52;;;;;;;7.47;1.15;;;1.80;99.90;;;;;;5028453;28;20049;-89
2021/11/22 06:42:20;;;;;;;5.90;1.58;;;1.80;99.90;;;;;;5009249;28;20050;-90
2021/11/22 06:44:47;;;;;;;5.22;1.48;;;1.80;99.90;;;;;;5007594;28;20026;-90
2021/11/22 06:47:13;;;;;;;8.82;1.30;;;1.80;99.90;;;;;;5011432;28;20018;-90
2021/11/22 06:49:38;;;;;;;4.38;1.27;;;1.90;99.90;;;;;;5002477;28;20039;-90
2021/11/22 06:52:04;;;;;;;8.23;1.52;;;1.80;99.90;;;;;;5012273;28;20017;-89
2021/11/22 06:54:30;;;;;;;5.80;1.30;;;1.70;99.90;;;;;;5013486;28;20057;-89
2021/11/22 06:56:56;;;;;;;8.82;1.50;;;1.70;99.90;;;;;;5011618;28;20498;-90
2021/11/22 06:59:22;;;;;;;6.47;1.42;;;1.70;99.90;;;;;;5013000;28;20046;-89
2021/11/22 07:01:48;;;;;;;4.22;1.17;;;1.70;99.90;;;;;;5011228;28;20101;-90
2021/11/22 07:04:13;;;;;;;3.72;1.27;;;1.70;99.90;;;;;;5010748;28;20060;-89
2021/11/22 07:06:39;;;;;;;4.90;1.38;;;1.70;99.90;;;;;;5012990;28;20061;-88
2021/11/22 07:09:05;;;;;;;7.50;1.40;;;1.70;99.90;;;;;;5008959;28;20485;-89
2021/11/22 07:11:31;;;;;;;7.03;1.38;;;1.80;99.90;;;;;;5010632;28;20273;-90
2021/11/22 07:13:57;;;;;;;10.55;1.58;;;1.70;99.90;;;;;;5014443;28;20073;-89
2021/11/22 07:16:22;;;;;;;4.53;1.27;;;1.70;99.90;;;;;;5013169;28;20022;-90
2021/11/22 07:18:48;;;;;;;4.60;1.33;;;1.70;99.90;;;;;;5012466;28;20025;-90
2021/11/22 07:21:14;;;;;;;6.05;1.30;;;1.70;99.90;;;;;;5013248;28;20030;-89
2021/11/22 07:23:40;;;;;;;7.30;1.63;;;1.80;99.90;;;;;;5010804;28;20022;-88
2021/11/22 07:26:05;;;;;;;12.10;1.35;;;1.80;99.90;;;;;;5002412;28;20037;-89
2021/11/22 07:28:31;;;;;;;11.32;1.60;;;1.70;99.90;;;;;;4999668;28;20034;-90
2021/11/22 07:30:57;;;;;;;7.20;1.30;;;1.80;99.90;;;;;;5004561;28;20482;-91
2021/11/22 07:33:23;;;;;;;7.53;1.70;;;1.80;99.90;;;;;;5003347;28;20022;-89
2021/11/22 07:35:49;;;;;;;10.07;1.55;;;1.80;99.90;;;;;;5007990;28;20022;-90
2021/11/22 07:38:15;;;;;;;9.48;2.03;;;1.80;99.90;;;;;;5011703;28;20044;-89
2021/11/22 07:40:41;;;;;;;9.80;1.65;;;1.80;99.90;;;;;;5016081;28;20108;-89
2021/11/22 07:43:07;;;;;;;6.88;1.33;;;1.80;99.90;;;;;;5022544;28;20026;-89
2021/11/22 07:45:33;;;;;;;5.63;1.60;;;1.90;99.90;;;;;;5025550;28;20061;-89
2021/11/22 07:47:58;;;;;;;7.28;1.58;;;1.90;99.90;;;;;;5036802;28;20028;-89
2021/11/22 07:50:26;;;;;;;8.43;1.60;;;1.90;99.90;;;;;;5034513;28;20048;-90
2021/11/22 07:52:52;;;;;;;6.97;1.98;;;2.00;99.90;;;;;;5045965;28;20022;-89
2021/11/22 07:55:21;;;;;;;11.20;1.85;;;2.00;99.90;;;;;;5032160;28;20041;-89
2021/11/22 07:57:46;;;;;;;11.02;1.45;;;2.00;99.90;;;;;;5034060;28;20028;-89
2021/11/22 08:00:13;;;;;;;13.70;2.05;;;2.10;99.90;;;;;;5033438;28;20037;-89
2021/11/22 08:02:38;;;;;;;6.72;1.83;;;2.10;99.90;;;;;;5034053;28;20028;-89
2021/11/22 08:05:05;;;;;;;6.40;1.95;;;2.10;99.90;;;;;;5027431;28;20034;-90
2021/11/22 08:07:32;;;;;;;7.50;1.75;;;2.10;99.90;;;;;;5031252;28;20026;-90
2021/11/22 08:10:00;;;;;;;6.05;1.60;;;2.20;99.90;;;;;;5027507;28;20029;-89
2021/11/22 08:12:28;;;;;;;4.38;1.85;;;2.20;99.90;;;;;;5031466;28;20033;-89
2021/11/22 08:14:59;;;;;;;6.85;2.08;;;2.30;99.90;;;;;;5031933;28;20025;-90
2021/11/22 08:17:26;;;;;;;11.50;2.17;;;2.40;99.90;;;;;;5033149;28;20033;-89
2021/11/22 08:19:54;;;;;;;9.23;2.40;;;2.40;99.90;;;;;;5051246;28;20513;-89
2021/11/22 08:22:22;;;;;;;5.30;2.25;;;2.40;99.90;;;;;;5032287;28;20444;-89
2021/11/22 08:24:52;;;;;;;5.53;1.75;;;2.50;99.90;;;;;;5029927;28;20057;-89
2021/11/22 08:27:22;;;;;;;7.25;1.73;;;2.50;99.90;;;;;;5032494;28;20112;-89
2021/11/22 08:29:48;;;;;;;7.07;1.65;;;2.60;99.90;;;;;;5027515;28;20034;-89
2021/11/22 08:32:14;;;;;;;6.40;2.03;;;2.60;99.90;;;;;;5033491;28;20080;-89
2021/11/22 08:34:40;;;;;;;9.55;2.30;;;2.70;99.90;;;;;;5026731;28;20032;-90
2021/11/22 08:37:06;;;;;;;9.48;2.10;;;2.70;99.90;;;;;;5030617;28;20029;-91
2021/11/22 08:39:31;;;;;;;5.50;2.00;;;2.70;99.90;;;;;;5031304;28;20048;-89
2021/11/22 08:41:57;;;;;;;13.23;2.92;;;2.80;99.90;;;;;;5019839;28;20508;-89
2021/11/22 08:44:23;;;;;;;7.40;1.92;;;2.80;99.90;;;;;;5019124;28;20022;-90
2021/11/22 08:46:49;;;;;;;7.97;1.70;;;2.90;99.90;;;;;;5031397;28;20037;-89
2021/11/22 08:49:16;;;;;;;6.07;1.52;;;2.90;99.90;;;;;;5029653;28;20026;-90
2021/11/22 08:51:43;;;;;;;6.45;1.50;;;3.00;99.90;;;;;;5031714;28;20508;-90
2021/11/22 08:54:10;;;;;;;5.03;1.88;;;3.10;99.90;;;;;;5028787;28;20167;-89
2021/11/22 08:56:35;;;;;;;8.20;1.48;;;3.10;99.90;;;;;;5030377;28;20047;-90
2021/11/22 08:59:01;;;;;;;7.55;1.45;;;3.20;99.90;;;;;;5033540;28;20477;-89
2021/11/22 09:01:27;;;;;;;6.82;1.95;;;3.30;99.90;;;;;;5037108;28;20038;-90
2021/11/22 09:03:55;;;;;;;6.07;1.65;;;3.30;99.90;;;;;;5031290;28;20091;-90
2021/11/22 09:06:21;;;;;;;8.07;1.90;;;3.40;99.90;;;;;;5035700;28;20076;-90
2021/11/22 09:08:47;;;;;;;8.93;2.22;;;3.50;99.90;;;;;;5036588;28;20029;-90
2021/11/22 09:11:14;;;;;;;6.50;1.70;;;3.50;99.90;;;;;;5035144;28;20440;-89
2021/11/22 09:13:40;;;;;;;7.60;2.08;;;3.60;99.90;;;;;;5033331;28;20080;-89
2021/11/22 09:16:06;;;;;;;6.05;1.40;;;3.70;99.90;;;;;;5034043;28;20029;-89
2021/11/22 09:18:32;;;;;;;6.88;1.45;;;3.70;99.90;;;;;;5033498;28;20536;-90
2021/11/22 09:20:58;;;;;;;5.35;1.67;;;3.80;99.90;;;;;;5032728;28;20038;-90
2021/11/22 09:23:24;;;;;;;5.53;1.65;;;3.90;99.90;;;;;;5034813;28;20393;-90
2021/11/22 09:25:53;;;;;;;5.93;1.83;;;4.00;99.90;;;;;;5040048;28;20489;-90
2021/11/22 09:28:19;;;;;;;7.95;1.38;;;4.10;99.90;;;;;;5032651;28;20029;-89
2021/11/22 09:30:46;;;;;;;5.70;1.90;;;4.20;99.90;;;;;;5053119;28;20050;-90
2021/11/22 09:33:12;;;;;;;6.53;1.40;;;4.20;99.90;;;;;;5037897;28;20029;-91
2021/11/22 09:35:39;;;;;;;4.35;1.40;;;4.20;99.90;;;;;;5036279;28;20030;-91
2021/11/22 09:38:04;;;;;;;5.68;1.55;;;4.40;99.90;;;;;;5024064;28;20383;-90
2021/11/22 09:40:32;;;;;;;5.50;0.88;;;4.40;99.90;;;;;;5049773;28;20053;-89
2021/11/22 09:42:57;;;;;;;5.03;1.25;;;4.50;99.90;;;;;;5034624;28;20026;-90
2021/11/22 09:45:27;;;;;;;6.10;1.58;;;4.50;99.90;;;;;;5037892;28;20389;-90
2021/11/22 09:47:54;;;;;;;6.85;1.48;;;4.60;99.90;;;;;;5036203;28;20029;-91
2021/11/22 09:50:20;;;;;;;3.63;0.98;;;4.70;99.90;;;;;;5036393;28;20105;-89
2021/11/22 09:52:46;;;;;;;6.90;1.33;;;4.70;99.90;;;;;;5036554;28;20030;-90
2021/11/22 09:55:11;;;;;;;4.53;1.02;;;4.80;99.90;;;;;;5035468;28;20037;-89
2021/11/22 09:57:37;;;;;;;7.80;0.90;;;4.90;99.90;;;;;;5033273;28;20033;-89
2021/11/22 10:00:06;;;;;;;9.02;0.98;;;5.00;99.90;;;;;;5025336;28;20025;-89
2021/11/22 10:02:51;;;;;;;5.82;1.00;;;5.10;99.90;;;;;;5032310;28;20413;-89
2021/11/22 10:05:18;;;;;;;4.65;1.00;;;5.20;99.90;;;;;;5033432;28;20030;-89
2021/11/22 10:07:43;;;;;;;9.15;1.27;;;5.20;99.90;;;;;;5030779;28;20053;-89
2021/11/22 10:10:13;;;;;;;2.92;0.85;;;5.30;99.90;;;;;;5046501;28;20088;-89
2021/11/22 10:12:41;;;;;;;5.10;0.90;;;5.40;99.90;;;;;;5032759;28;20025;-89
2021/11/22 10:15:06;;;;;;;4.93;0.80;;;5.50;99.90;;;;;;5032692;28;20029;-89
2021/11/22 10:17:39;;;;;;;4.18;0.77;;;5.60;99.90;;;;;;5031753;28;20033;-89
2021/11/22 10:20:07;;;;;;;6.53;1.13;;;5.70;99.90;;;;;;5026233;28;20025;-89
2021/11/22 10:23:00;;;;;;;2.83;0.70;;;5.70;99.90;;;;;;5033568;28;20451;-89
2021/11/22 10:25:30;;;;;;;6.03;0.77;;;5.90;99.90;;;;;;5033389;28;20484;-88
2021/11/22 10:28:19;;;;;;;6.10;0.70;;;5.90;99.90;;;;;;5032882;28;20497;-88
2021/11/22 10:30:52;;;;;;;7.63;0.80;;;6.00;99.90;;;;;;5027376;28;20111;-89
2021/11/22 10:33:21;;;;;;;4.05;0.73;;;6.10;99.90;;;;;;5030202;28;20026;-88
2021/11/22 10:35:48;;;;;;;4.18;0.85;;;6.20;99.90;;;;;;5039390;28;20088;-88
2021/11/22 10:38:24;;;;;;;2.88;0.75;;;6.20;99.90;;;;;;5030602;28;20024;-90
2021/11/22 10:41:15;;;;;;;3.22;0.60;;;6.30;99.90;;;;;;5032297;28;20141;-89
2021/11/22 10:44:00;;;;;;;3.35;1.02;;;6.40;99.90;;;;;;5025531;28;20037;-89
2021/11/22 10:46:34;;;;;;;6.95;0.70;;;6.50;99.90;;;;;;5032570;28;20473;-90
2021/11/22 10:49:27;;;;;;;2.25;0.43;;;6.50;99.90;;;;;;5030075;28;20036;-91
2021/11/22 10:52:10;;;;;;;6.40;0.70;;;6.60;99.90;;;;;;5044987;28;20033;-90
2021/11/22 10:55:10;;;;;;;3.33;0.50;;;6.60;99.90;;;;;;5031008;28;20029;-90
2021/11/22 10:57:39;;;;;;;8.40;0.60;;;6.70;99.90;;;;;;5033402;28;20025;-90
2021/11/22 11:00:24;;;;;;;3.33;0.43;;;6.70;99.90;;;;;;5027656;28;20022;-90
2021/11/22 11:02:51;;;;;;;7.03;0.98;;;6.70;99.90;;;;;;5028591;28;20500;-89
2021/11/22 11:05:31;;;;;;;3.47;0.40;;;6.80;99.90;;;;;;5017035;28;20029;-89
2021/11/22 11:08:01;;;;;;;6.63;0.40;;;6.80;99.90;;;;;;5032944;28;20496;-90
2021/11/22 11:10:27;;;;;;;3.63;0.40;;;6.80;99.90;;;;;;5032170;28;20034;-89
2021/11/22 11:12:56;;;;;;;3.90;0.43;;;6.90;99.90;;;;;;5020671;28;20026;-89
2021/11/22 11:15:23;;;;;;;4.70;0.50;;;6.90;99.90;;;;;;5029708;28;20036;-90
2021/11/22 11:17:49;;;;;;;2.75;0.60;;;6.90;99.90;;;;;;5030153;28;20061;-90
2021/11/22 11:20:18;;;;;;;1.60;0.40;;;6.90;99.90;;;;;;5018367;28;20390;-89
2021/11/22 11:22:45;;;;;;;1.88;0.40;;;7.00;99.90;;;;;;5026345;28;20029;-90
2021/11/22 11:25:11;;;;;;;1.98;0.38;;;7.00;99.90;;;;;;5032326;28;20120;-89
2021/11/22 11:27:40;;;;;;;1.88;0.30;;;7.00;99.90;;;;;;5033314;28;20319;-90
2021/11/22 11:30:08;;;;;;;2.65;0.30;;;7.10;99.90;;;;;;5031915;28;20033;-90
2021/11/22 11:32:33;;;;;;;2.08;0.22;;;7.10;99.90;;;;;;5032666;28;20032;-90
2021/11/22 11:35:00;;;;;;;2.17;0.85;;;7.20;99.90;;;;;;5030626;28;20025;-89
2021/11/22 11:37:48;;;;;;;2.50;0.30;;;7.10;99.90;;;;;;5031495;28;20021;-91
2021/11/22 11:40:31;;;;;;;5.18;0.20;;;7.20;99.90;;;;;;5044711;28;20489;-90
2021/11/22 11:43:25;;;;;;;1.42;0.30;;;7.20;99.90;;;;;;5045285;28;20025;-90
2021/11/22 11:46:20;;;;;;;3.45;0.30;;;7.20;99.90;;;;;;5036028;28;20028;-89
2021/11/22 11:49:06;;;;;;;2.05;0.32;;;7.30;99.90;;;;;;5044227;28;20051;-89
2021/11/22 11:51:39;;;;;;;1.45;0.30;;;7.30;99.90;;;;;;5035504;28;20086;-88
2021/11/22 11:54:08;;;;;;;4.20;0.45;;;7.30;99.90;;;;;;5028223;28;20029;-89
2021/11/22 11:56:45;;;;;;;3.08;0.50;;;7.30;99.90;;;;;;5027518;28;20033;-89
2021/11/22 11:59:18;;;;;;;1.80;0.30;;;7.40;99.90;;;;;;5032360;28;20474;-90
2021/11/22 12:02:02;;;;;;;5.90;0.63;;;7.40;99.90;;;;;;5033563;28;20024;-89
2021/11/22 12:04:55;;;;;;;2.55;0.40;;;7.40;99.90;;;;;;5025123;28;20401;-90
2021/11/22 12:07:34;;;;;;;2.72;0.30;;;7.50;99.90;;;;;;5024023;28;20021;-89
2021/11/22 12:10:18;;;;;;;2.42;0.35;;;7.50;99.90;;;;;;5050467;28;20136;-89
2021/11/22 12:13:07;;;;;;;2.72;0.30;;;7.50;99.90;;;;;;5044552;28;20155;-90
2021/11/22 12:15:43;;;;;;;2.03;0.30;;;7.60;99.90;;;;;;5027097;28;20087;-90
2021/11/22 12:18:23;;;;;;;3.67;0.38;;;7.60;99.90;;;;;;5026388;28;20029;-89
2021/11/22 12:20:51;;;;;;;2.85;0.57;;;7.60;99.90;;;;;;5024468;28;20052;-89
2021/11/22 12:23:20;;;;;;;1.60;0.35;;;7.60;99.90;;;;;;5037439;28;20025;-89
2021/11/22 12:25:49;;;;;;;2.58;0.50;;;7.60;99.90;;;;;;5036225;28;20035;-88
2021/11/22 12:28:22;;;;;;;3.88;0.40;;;7.70;99.90;;;;;;5046081;28;20451;-87
2021/11/22 12:31:13;;;;;;;5.38;0.30;;;7.70;99.90;;;;;;5047340;28;20048;-88
2021/11/22 12:33:45;;;;;;;1.63;0.40;;;7.70;99.90;;;;;;5028638;28;20021;-87
2021/11/22 12:36:10;;;;;;;4.22;0.40;;;7.80;99.90;;;;;;5052438;28;20040;-87
2021/11/22 12:38:46;;;;;;;4.78;0.40;;;7.80;99.90;;;;;;5048251;28;20127;-88
2021/11/22 12:41:39;;;;;;;1.35;0.20;;;7.90;99.90;;;;;;5049415;28;20049;-87
2021/11/22 12:44:13;;;;;;;;;;;8.00;99.90;;;;;;5039435;28;20025;-87
2021/11/22 12:46:42;;;;;;;2.25;0.30;;;7.90;99.90;;;;;;5052726;28;20007;-87
2021/11/22 12:49:26;;;;;;;1.85;0.10;;;7.90;99.90;;;;;;5051330;28;20160;-86
2021/11/22 12:51:52;;;;;;;1.42;0.20;;;8.00;99.90;;;;;;5041247;28;20115;-87
2021/11/22 12:54:20;;;;;;;1.58;0.20;;;8.00;99.90;;;;;;5033646;28;20037;-87
2021/11/22 12:56:47;;;;;;;2.08;0.10;;;8.00;99.90;;;;;;5028626;28;20032;-87
2021/11/22 12:59:19;;;;;;;2.15;0.57;;;8.00;99.90;;;;;;5037785;28;20021;-87
2021/11/22 13:01:58;;;;;;;0.93;0.10;;;8.00;99.40;;;;;;5042593;28;20384;-86
2021/11/22 13:04:42;;;;;;;1.70;0.17;;;8.10;98.50;;;;;;5047321;28;20029;-86